Time;durP1;ratioP1;P1;durP2;ratioP2;P2;SDS_P1;SDS_P2;PMS_P1;PMS_P2;Temp;Humidity;BMP_temperature;BMP_pressure;BME280_temperature;BME280_humidity;BME280_pressure;Samples;Min_cycle;Max_cycle;Signal;HPM_P1;HPM_P2
2021/05/14 00:01:22;;;;;;;28.80;22.17;;;10.30;99.90;;;;;;4940323;29;20483;-78
2021/05/14 00:03:49;;;;;;;25.77;22.07;;;10.20;99.90;;;;;;4939596;29;20853;-78
2021/05/14 00:06:17;;;;;;;25.27;20.17;;;10.20;99.90;;;;;;4939698;29;20898;-78
2021/05/14 00:08:46;;;;;;;26.10;22.43;;;10.20;99.90;;;;;;4941408;29;20478;-78
2021/05/14 00:11:14;;;;;;;27.13;22.93;;;10.20;99.90;;;;;;4939616;29;20451;-78
2021/05/14 00:13:41;;;;;;;29.17;23.67;;;10.20;99.90;;;;;;4939523;29;20492;-78
2021/05/14 00:16:09;;;;;;;25.80;21.27;;;10.20;99.90;;;;;;4941115;29;21005;-78
2021/05/14 00:18:37;;;;;;;24.07;19.27;;;10.20;99.90;;;;;;4940432;29;20448;-78
2021/05/14 00:21:05;;;;;;;28.80;21.40;;;10.20;99.90;;;;;;4940569;29;20484;-78
2021/05/14 00:23:32;;;;;;;25.77;20.20;;;10.20;99.90;;;;;;4940881;29;20451;-78
2021/05/14 00:26:01;;;;;;;27.10;20.77;;;10.10;99.90;;;;;;4940278;29;20444;-79
2021/05/14 00:28:28;;;;;;;23.77;18.77;;;10.10;99.90;;;;;;4938491;29;20495;-78
2021/05/14 00:30:56;;;;;;;22.57;18.30;;;10.10;99.90;;;;;;4938749;29;20532;-78
2021/05/14 00:33:24;;;;;;;24.70;18.57;;;10.10;99.90;;;;;;4939111;29;20475;-78
2021/05/14 00:35:51;;;;;;;20.73;16.90;;;10.10;99.90;;;;;;4941591;29;20443;-78
2021/05/14 00:38:19;;;;;;;21.83;17.60;;;10.00;99.90;;;;;;4938106;29;20537;-78
2021/05/14 00:40:47;;;;;;;22.00;18.40;;;10.00;99.90;;;;;;4938437;29;20478;-78
2021/05/14 00:43:15;;;;;;;23.60;18.40;;;10.00;99.90;;;;;;4936687;29;20884;-78
2021/05/14 00:45:43;;;;;;;20.53;15.87;;;10.00;99.90;;;;;;4939225;29;20204;-80
2021/05/14 00:48:10;;;;;;;25.47;17.53;;;10.00;99.90;;;;;;4938577;29;20519;-80
2021/05/14 00:50:38;;;;;;;27.23;18.43;;;10.00;99.90;;;;;;4938655;29;20561;-79
2021/05/14 00:53:06;;;;;;;27.47;19.60;;;9.90;99.90;;;;;;4940156;29;20483;-79
2021/05/14 00:55:33;;;;;;;24.20;18.57;;;9.90;99.90;;;;;;4938158;29;20463;-79
2021/05/14 00:58:01;;;;;;;23.57;18.90;;;9.80;99.90;;;;;;4940038;29;20460;-79
2021/05/14 01:00:31;;;;;;;24.63;18.97;;;9.80;99.90;;;;;;4939787;29;20460;-79
2021/05/14 01:02:58;;;;;;;26.30;19.87;;;9.80;99.90;;;;;;4939494;29;20485;-79
2021/05/14 01:05:27;;;;;;;27.00;20.40;;;9.80;99.90;;;;;;4938067;29;20460;-79
2021/05/14 01:07:55;;;;;;;23.67;17.30;;;9.70;99.90;;;;;;4930676;29;20463;-78
2021/05/14 01:10:23;;;;;;;24.17;18.00;;;9.80;99.90;;;;;;4920626;29;20510;-79
2021/05/14 01:12:51;;;;;;;25.10;17.80;;;9.80;99.90;;;;;;4919926;29;20481;-78
2021/05/14 01:15:18;;;;;;;22.23;18.10;;;9.70;99.90;;;;;;4922985;29;20425;-78
2021/05/14 01:17:47;;;;;;;22.63;17.53;;;9.70;99.90;;;;;;4937827;29;20547;-78
2021/05/14 01:20:15;;;;;;;20.87;16.33;;;9.70;99.90;;;;;;4938002;29;20502;-78
2021/05/14 01:22:44;;;;;;;21.10;15.23;;;9.70;99.90;;;;;;4939588;29;20468;-78
2021/05/14 01:25:12;;;;;;;21.10;16.77;;;9.70;99.90;;;;;;4938714;29;21057;-80
2021/05/14 01:27:40;;;;;;;21.87;15.23;;;9.70;99.90;;;;;;4939208;29;20458;-78
2021/05/14 01:30:09;;;;;;;18.10;15.80;;;9.70;99.90;;;;;;4939345;29;20554;-78
2021/05/14 01:32:36;;;;;;;17.10;14.90;;;9.60;99.90;;;;;;4938161;29;20502;-78
2021/05/14 01:35:05;;;;;;;20.23;16.33;;;9.60;99.90;;;;;;4938395;29;20541;-78
2021/05/14 01:37:32;;;;;;;17.10;14.90;;;9.60;99.90;;;;;;4938043;29;20583;-78
2021/05/14 01:40:01;;;;;;;17.03;13.63;;;9.60;99.90;;;;;;4940103;29;20530;-78
2021/05/14 01:42:28;;;;;;;16.60;12.97;;;9.60;99.90;;;;;;4938712;29;20450;-78
2021/05/14 01:44:56;;;;;;;14.50;12.13;;;9.60;99.90;;;;;;4939816;29;20455;-78
2021/05/14 01:47:23;;;;;;;16.07;13.50;;;9.60;99.90;;;;;;4938140;29;21016;-78
2021/05/14 01:49:51;;;;;;;15.80;13.67;;;9.60;99.90;;;;;;4938105;29;20569;-78
2021/05/14 01:52:19;;;;;;;15.40;12.33;;;9.60;99.90;;;;;;4938372;29;20546;-78
2021/05/14 01:54:46;;;;;;;14.53;13.00;;;9.60;99.90;;;;;;4940685;29;20514;-78
2021/05/14 01:57:15;;;;;;;15.27;12.70;;;9.60;99.90;;;;;;4942075;29;20475;-79
2021/05/14 01:59:43;;;;;;;15.73;12.93;;;9.60;99.90;;;;;;4943773;29;20463;-79
2021/05/14 02:02:10;;;;;;;15.13;12.27;;;9.50;99.90;;;;;;4942736;29;20486;-79
2021/05/14 02:04:38;;;;;;;18.23;14.35;;;9.50;99.90;;;;;;4941635;29;20839;-79
2021/05/14 02:07:05;;;;;;;14.30;11.53;;;9.60;99.90;;;;;;4942681;29;20655;-78
2021/05/14 02:09:33;;;;;;;16.03;12.73;;;9.60;99.90;;;;;;4942440;29;20483;-78
2021/05/14 02:12:01;;;;;;;16.13;13.13;;;9.60;99.90;;;;;;4942569;29;20559;-78
2021/05/14 02:14:29;;;;;;;17.67;14.10;;;9.60;99.90;;;;;;4942724;29;20522;-78
2021/05/14 02:16:57;;;;;;;17.90;14.50;;;9.60;99.90;;;;;;4942381;29;20546;-78
2021/05/14 02:19:24;;;;;;;18.43;14.10;;;9.50;99.90;;;;;;4943146;29;20542;-78
2021/05/14 02:21:52;;;;;;;16.93;14.60;;;9.50;99.90;;;;;;4940777;29;20821;-78
2021/05/14 02:24:21;;;;;;;17.83;14.90;;;9.50;99.90;;;;;;4940907;29;20836;-78
2021/05/14 02:26:48;;;;;;;17.30;13.73;;;9.50;99.90;;;;;;4940606;29;20450;-78
2021/05/14 02:29:16;;;;;;;19.13;15.27;;;9.50;99.90;;;;;;4942112;29;20530;-78
2021/05/14 02:31:44;;;;;;;19.23;15.50;;;9.50;99.90;;;;;;4942092;29;20448;-78
2021/05/14 02:34:12;;;;;;;21.53;15.80;;;9.60;99.90;;;;;;4942549;29;20498;-78
2021/05/14 02:36:40;;;;;;;21.97;16.57;;;9.60;99.90;;;;;;4941880;29;20987;-78
2021/05/14 02:39:09;;;;;;;23.03;16.37;;;9.50;99.90;;;;;;4942935;29;20577;-78
2021/05/14 02:41:38;;;;;;;22.93;17.27;;;9.60;99.90;;;;;;4941885;29;20656;-78
2021/05/14 02:44:06;;;;;;;20.27;17.13;;;9.60;99.90;;;;;;4943653;29;20541;-78
2021/05/14 02:46:34;;;;;;;21.63;17.30;;;9.60;99.90;;;;;;4945173;29;21024;-79
2021/05/14 02:49:05;;;;;;;21.20;17.00;;;9.60;99.90;;;;;;4942100;29;20462;-78
2021/05/14 02:51:33;;;;;;;19.70;15.33;;;9.60;99.90;;;;;;4940606;29;20476;-78
2021/05/14 02:54:01;;;;;;;22.57;15.77;;;9.60;99.90;;;;;;4942176;29;20482;-78
2021/05/14 02:56:29;;;;;;;23.00;16.43;;;9.60;99.90;;;;;;4941002;29;20948;-78
2021/05/14 02:58:56;;;;;;;20.33;16.87;;;9.50;99.90;;;;;;4941194;29;20468;-78
2021/05/14 03:01:24;;;;;;;16.80;14.57;;;9.50;99.90;;;;;;4942004;29;20483;-79
2021/05/14 03:03:52;;;;;;;18.50;15.20;;;9.50;99.90;;;;;;4940547;29;20459;-79
2021/05/14 03:06:21;;;;;;;17.07;13.53;;;9.50;99.90;;;;;;4940979;29;20478;-79
2021/05/14 03:08:49;;;;;;;19.33;15.53;;;9.50;99.90;;;;;;4939812;29;20511;-79
2021/05/14 03:11:17;;;;;;;18.17;14.50;;;9.50;99.90;;;;;;4936367;29;20538;-77
2021/05/14 03:13:44;;;;;;;19.23;15.97;;;9.50;99.90;;;;;;4937993;29;20443;-77
2021/05/14 03:16:12;;;;;;;21.30;16.03;;;9.40;99.90;;;;;;4937839;29;20494;-77
2021/05/14 03:18:40;;;;;;;23.40;19.23;;;9.40;99.90;;;;;;4937627;29;21001;-77
2021/05/14 03:21:07;;;;;;;23.07;17.87;;;9.40;99.90;;;;;;4936167;29;20561;-77
2021/05/14 03:23:36;;;;;;;18.93;15.20;;;9.30;99.90;;;;;;4937523;29;20444;-77
2021/05/14 03:26:03;;;;;;;16.93;14.97;;;9.30;99.90;;;;;;4937614;29;20470;-77
2021/05/14 03:28:31;;;;;;;16.43;12.10;;;9.30;99.90;;;;;;4936336;29;20487;-77
2021/05/14 03:30:59;;;;;;;14.47;12.97;;;9.30;99.90;;;;;;4937467;29;20502;-77
2021/05/14 03:33:27;;;;;;;17.80;13.07;;;9.30;99.90;;;;;;4936257;29;20597;-77
2021/05/14 03:35:54;;;;;;;16.73;13.53;;;9.30;99.90;;;;;;4934617;29;20457;-77
2021/05/14 03:38:28;;;;;;;18.27;14.87;;;9.20;99.90;;;;;;4938143;29;20483;-77
2021/05/14 03:40:57;;;;;;;16.07;14.07;;;9.30;99.90;;;;;;4936033;29;20569;-79
2021/05/14 03:43:25;;;;;;;19.77;15.60;;;9.30;99.90;;;;;;4937375;29;20510;-78
2021/05/14 03:45:53;;;;;;;17.33;15.17;;;9.30;99.90;;;;;;4935899;29;20493;-78
2021/05/14 03:48:21;;;;;;;17.77;15.70;;;9.30;99.90;;;;;;4935772;29;20448;-78
2021/05/14 03:50:50;;;;;;;16.77;13.33;;;9.30;99.90;;;;;;4937148;29;20458;-78
2021/05/14 03:53:18;;;;;;;17.47;15.43;;;9.30;99.90;;;;;;4935693;29;20546;-78
2021/05/14 03:55:46;;;;;;;18.03;14.17;;;9.30;99.90;;;;;;4937078;29;20628;-78
2021/05/14 03:58:14;;;;;;;16.73;13.40;;;9.30;99.90;;;;;;4936394;29;20470;-77
2021/05/14 04:00:42;;;;;;;15.00;13.40;;;9.20;99.90;;;;;;4936715;29;20486;-77
2021/05/14 04:03:11;;;;;;;14.83;12.87;;;9.20;99.90;;;;;;4938067;29;20534;-77
2021/05/14 04:05:40;;;;;;;15.30;13.23;;;9.20;99.90;;;;;;4935721;29;20522;-77
2021/05/14 04:08:09;;;;;;;17.30;14.50;;;9.20;99.90;;;;;;4936813;29;20938;-77
2021/05/14 04:10:51;;;;;;;15.13;13.67;;;9.20;99.90;;;;;;4935370;29;20580;-77
2021/05/14 04:16:07;;;;;;;16.30;13.20;;;9.20;99.90;;;;;;4936482;29;20427;-78
2021/05/14 04:18:36;;;;;;;17.13;12.60;;;9.20;99.90;;;;;;4935127;29;20539;-78
2021/05/14 04:21:04;;;;;;;17.73;13.20;;;9.10;99.90;;;;;;4936387;29;20464;-77
2021/05/14 04:23:32;;;;;;;16.40;13.47;;;9.10;99.90;;;;;;4934978;29;20785;-77
2021/05/14 04:26:00;;;;;;;14.10;12.20;;;9.20;99.90;;;;;;4936224;29;20443;-77
2021/05/14 04:28:28;;;;;;;15.17;12.43;;;9.20;99.90;;;;;;4936336;29;20440;-77
2021/05/14 04:30:56;;;;;;;18.03;12.33;;;9.20;99.90;;;;;;4936112;29;20506;-78
2021/05/14 04:33:24;;;;;;;15.33;13.30;;;9.20;99.90;;;;;;4934837;29;20502;-78
2021/05/14 04:35:53;;;;;;;15.70;12.50;;;9.20;99.90;;;;;;4934862;29;20803;-78
2021/05/14 04:38:21;;;;;;;14.17;12.03;;;9.30;99.90;;;;;;4933805;29;20621;-78
2021/05/14 04:40:48;;;;;;;20.53;13.03;;;9.30;99.90;;;;;;4935694;29;20848;-78
2021/05/14 04:43:16;;;;;;;19.17;12.57;;;9.30;99.90;;;;;;4934765;29;20487;-78
2021/05/14 04:45:44;;;;;;;17.40;12.40;;;9.30;99.90;;;;;;4935862;29;20864;-78
2021/05/14 04:48:14;;;;;;;18.27;13.20;;;9.40;99.90;;;;;;4934776;29;20506;-79
2021/05/14 04:50:42;;;;;;;14.57;12.13;;;9.30;99.90;;;;;;4934562;29;20481;-78
2021/05/14 04:53:13;;;;;;;14.65;12.00;;;9.40;99.90;;;;;;4935609;29;20453;-78
2021/05/14 04:55:41;;;;;;;13.60;11.20;;;9.40;99.90;;;;;;4935941;29;20198;-78
2021/05/14 04:58:10;;;;;;;15.10;11.40;;;9.40;99.90;;;;;;4933667;29;20468;-78
2021/05/14 05:00:38;;;;;;;13.27;11.00;;;9.40;99.90;;;;;;4934646;29;20581;-77
2021/05/14 05:03:07;;;;;;;15.68;10.85;;;9.40;99.90;;;;;;4934150;29;20520;-77
2021/05/14 05:05:36;;;;;;;13.30;10.33;;;9.50;99.90;;;;;;4934510;29;20682;-77
2021/05/14 05:08:05;;;;;;;15.70;9.63;;;9.50;99.90;;;;;;4934337;29;20452;-77
2021/05/14 05:10:32;;;;;;;11.60;10.40;;;9.50;99.90;;;;;;4934217;29;20562;-77
2021/05/14 05:13:00;;;;;;;13.37;9.80;;;9.50;99.90;;;;;;4934344;29;20558;-77
2021/05/14 05:15:28;;;;;;;11.17;9.50;;;9.60;99.90;;;;;;4934677;29;20539;-77
2021/05/14 05:17:55;;;;;;;14.33;9.67;;;9.60;99.90;;;;;;4933838;29;20475;-77
2021/05/14 05:20:24;;;;;;;13.60;9.93;;;9.60;99.90;;;;;;4934935;29;20969;-77
2021/05/14 05:22:51;;;;;;;11.23;9.07;;;9.60;99.90;;;;;;4934448;29;20526;-77
2021/05/14 05:25:19;;;;;;;10.53;8.83;;;9.60;99.90;;;;;;4934424;29;20499;-77
2021/05/14 05:27:47;;;;;;;16.47;10.57;;;9.60;99.90;;;;;;4934761;29;20810;-77
2021/05/14 05:30:16;;;;;;;17.10;10.50;;;9.60;99.90;;;;;;4938735;29;20475;-79
2021/05/14 05:32:44;;;;;;;15.03;10.10;;;9.60;99.90;;;;;;4939287;29;20874;-78
2021/05/14 05:35:12;;;;;;;12.07;8.43;;;9.60;99.90;;;;;;4938118;29;20801;-78
2021/05/14 05:37:41;;;;;;;19.47;9.50;;;9.70;99.90;;;;;;4938632;29;20443;-78
2021/05/14 05:40:09;;;;;;;14.27;9.53;;;9.70;99.90;;;;;;4937931;29;20549;-78
2021/05/14 05:42:37;;;;;;;15.20;9.33;;;9.70;99.90;;;;;;4937884;29;20428;-78
2021/05/14 05:45:06;;;;;;;16.03;9.70;;;9.70;99.90;;;;;;4939206;29;20844;-78
2021/05/14 05:47:35;;;;;;;15.50;9.47;;;9.70;99.90;;;;;;4938119;29;20454;-78
2021/05/14 05:50:03;;;;;;;12.70;9.03;;;9.70;99.90;;;;;;4937694;29;20561;-78
2021/05/14 05:52:31;;;;;;;12.23;9.00;;;9.70;99.90;;;;;;4937434;29;20439;-78
2021/05/14 05:54:59;;;;;;;9.23;8.23;;;9.70;99.90;;;;;;4939135;29;20475;-78
2021/05/14 05:57:27;;;;;;;12.37;9.57;;;9.80;99.90;;;;;;4938870;29;20470;-77
2021/05/14 05:59:55;;;;;;;13.13;9.83;;;9.80;99.90;;;;;;4937534;29;20585;-77
2021/05/14 06:02:22;;;;;;;12.23;8.83;;;9.80;99.90;;;;;;4937501;29;20554;-77
2021/05/14 06:04:50;;;;;;;14.40;9.10;;;9.80;99.90;;;;;;4937499;29;20518;-77
2021/05/14 06:07:18;;;;;;;15.47;9.47;;;9.90;99.90;;;;;;4938974;29;20471;-77
2021/05/14 06:09:46;;;;;;;13.63;8.57;;;9.90;99.90;;;;;;4937572;29;21031;-77
2021/05/14 06:12:19;;;;;;;12.07;9.00;;;9.90;99.90;;;;;;4937504;29;21033;-77
2021/05/14 06:14:47;;;;;;;16.33;10.73;;;10.00;99.90;;;;;;4937479;29;20898;-77
2021/05/14 06:17:14;;;;;;;14.67;8.47;;;10.10;99.90;;;;;;4938355;29;20459;-77
2021/05/14 06:19:47;;;;;;;17.57;9.63;;;10.10;99.90;;;;;;4937316;29;20490;-77
2021/05/14 06:22:15;;;;;;;11.25;8.82;;;10.10;99.90;;;;;;4937714;29;20499;-77
2021/05/14 06:24:43;;;;;;;10.53;8.53;;;10.20;99.90;;;;;;4938562;29;20196;-77
2021/05/14 06:27:10;;;;;;;10.53;9.07;;;10.20;99.90;;;;;;4937186;29;20460;-77
2021/05/14 06:29:41;;;;;;;11.00;8.43;;;10.30;99.90;;;;;;4938736;29;20552;-77
2021/05/14 06:32:09;;;;;;;10.73;7.80;;;10.30;99.90;;;;;;4937364;29;20993;-77
2021/05/14 06:34:37;;;;;;;10.47;8.97;;;10.30;99.90;;;;;;4937400;29;20934;-77
2021/05/14 06:37:05;;;;;;;12.67;8.90;;;10.30;99.90;;;;;;4938461;29;20455;-77
2021/05/14 06:39:32;;;;;;;12.67;9.00;;;10.30;99.90;;;;;;4937097;29;20487;-78
2021/05/14 06:42:00;;;;;;;15.43;9.00;;;10.40;99.90;;;;;;4936451;29;20878;-78
2021/05/14 06:44:28;;;;;;;11.10;7.53;;;10.40;99.90;;;;;;4938185;29;20892;-78
2021/05/14 06:46:57;;;;;;;15.27;8.33;;;10.40;99.90;;;;;;4938857;29;20456;-78
2021/05/14 06:49:25;;;;;;;11.30;7.90;;;10.50;99.90;;;;;;4938625;29;20464;-78
2021/05/14 06:51:53;;;;;;;13.97;8.30;;;10.50;99.90;;;;;;4937240;29;20503;-79
2021/05/14 06:54:21;;;;;;;14.37;9.00;;;10.50;99.90;;;;;;4938270;29;20436;-78
2021/05/14 06:56:50;;;;;;;15.43;8.47;;;10.50;99.90;;;;;;4938895;29;20822;-78
2021/05/14 06:59:18;;;;;;;12.90;9.20;;;10.50;99.90;;;;;;4936763;29;20483;-79
2021/05/14 07:01:46;;;;;;;11.80;9.07;;;10.60;99.90;;;;;;4937398;29;20506;-79
2021/05/14 07:04:15;;;;;;;10.90;7.90;;;10.60;99.90;;;;;;4938160;29;20828;-79
2021/05/14 07:06:43;;;;;;;13.03;8.27;;;10.70;99.90;;;;;;4936482;29;20505;-79
2021/05/14 07:09:12;;;;;;;12.47;9.47;;;10.70;99.90;;;;;;4938043;29;20474;-78
2021/05/14 07:11:44;;;;;;;16.87;9.50;;;10.80;99.90;;;;;;4937921;29;20432;-78
2021/05/14 07:14:11;;;;;;;12.83;7.43;;;10.80;99.90;;;;;;4938016;29;20443;-78
2021/05/14 07:16:39;;;;;;;10.20;7.60;;;10.80;99.90;;;;;;4936870;29;20490;-79
2021/05/14 07:19:07;;;;;;;10.93;7.77;;;10.90;99.90;;;;;;4937628;29;20486;-79
2021/05/14 07:21:35;;;;;;;12.40;7.40;;;10.90;99.90;;;;;;4936681;29;20579;-78
2021/05/14 07:24:05;;;;;;;10.33;7.00;;;11.00;99.90;;;;;;4936529;29;20466;-79
2021/05/14 07:26:32;;;;;;;8.10;7.20;;;11.00;99.90;;;;;;4937664;29;20542;-79
2021/05/14 07:29:06;;;;;;;9.50;6.50;;;11.00;99.90;;;;;;4936301;29;20914;-79
2021/05/14 07:31:34;;;;;;;13.23;6.60;;;11.00;99.90;;;;;;4937270;29;20518;-78
2021/05/14 07:34:02;;;;;;;10.07;6.90;;;11.10;99.90;;;;;;4934493;29;20444;-79
2021/05/14 07:36:30;;;;;;;7.37;6.63;;;11.10;99.90;;;;;;4938959;29;20463;-79
2021/05/14 07:38:58;;;;;;;9.47;6.90;;;11.20;99.90;;;;;;4937368;29;20554;-78
2021/05/14 07:41:26;;;;;;;9.20;7.10;;;11.30;99.90;;;;;;4937630;29;20440;-79
2021/05/14 07:43:54;;;;;;;12.37;6.40;;;11.30;99.90;;;;;;4935804;29;20547;-78
2021/05/14 07:46:21;;;;;;;14.23;6.10;;;11.40;99.90;;;;;;4936010;29;20487;-78
2021/05/14 07:48:54;;;;;;;8.60;7.40;;;11.40;99.90;;;;;;4937581;29;20428;-78
2021/05/14 07:51:22;;;;;;;10.60;6.60;;;11.50;99.90;;;;;;4939009;29;20548;-77
2021/05/14 07:53:50;;;;;;;14.53;8.27;;;11.60;99.90;;;;;;4936103;29;20484;-78
2021/05/14 07:56:18;;;;;;;15.13;7.70;;;11.60;99.90;;;;;;4936803;29;20479;-78
2021/05/14 07:58:46;;;;;;;8.00;6.93;;;11.70;99.90;;;;;;4934635;29;20456;-78
2021/05/14 08:01:14;;;;;;;8.03;6.50;;;11.90;99.90;;;;;;4935827;29;20995;-78
2021/05/14 08:03:41;;;;;;;12.30;7.00;;;11.90;99.90;;;;;;4935629;29;20547;-78
2021/05/14 08:06:10;;;;;;;12.23;8.10;;;11.90;99.90;;;;;;4935812;29;20459;-78
2021/05/14 08:08:39;;;;;;;9.07;7.07;;;12.00;99.90;;;;;;4937030;29;20483;-78
2021/05/14 08:11:09;;;;;;;8.57;7.77;;;12.00;99.90;;;;;;4935528;29;20570;-78
2021/05/14 08:13:38;;;;;;;9.33;7.70;;;12.10;99.90;;;;;;4936695;29;20531;-77
2021/05/14 08:16:05;;;;;;;9.73;7.13;;;12.20;99.90;;;;;;4935607;29;20472;-77
2021/05/14 08:18:33;;;;;;;11.57;7.03;;;12.20;99.90;;;;;;4935280;29;20563;-77
2021/05/14 08:21:01;;;;;;;11.13;6.43;;;12.30;99.90;;;;;;4936424;29;20483;-78
2021/05/14 08:23:29;;;;;;;12.73;7.10;;;12.40;99.90;;;;;;4933219;29;20492;-78
2021/05/14 08:25:57;;;;;;;11.23;7.10;;;12.40;99.90;;;;;;4936500;29;20551;-78
2021/05/14 08:28:24;;;;;;;9.40;7.93;;;12.40;99.90;;;;;;4936816;29;20942;-78
2021/05/14 08:30:53;;;;;;;11.70;8.13;;;12.30;99.90;;;;;;4935140;29;20525;-77
2021/05/14 08:33:22;;;;;;;9.77;7.57;;;12.40;99.90;;;;;;4935083;29;20491;-77
2021/05/14 08:35:54;;;;;;;10.80;7.97;;;12.50;99.90;;;;;;4936678;29;20432;-78
2021/05/14 08:38:22;;;;;;;10.50;7.90;;;12.60;99.90;;;;;;4936365;29;20439;-78
2021/05/14 08:40:49;;;;;;;17.77;9.00;;;12.70;99.90;;;;;;4935104;29;20570;-78
2021/05/14 08:43:17;;;;;;;9.70;7.63;;;12.90;99.90;;;;;;4935079;29;20448;-78
2021/05/14 08:45:44;;;;;;;9.77;8.77;;;12.90;99.90;;;;;;4935021;29;20444;-78
2021/05/14 08:48:13;;;;;;;12.73;8.83;;;13.00;99.90;;;;;;4935487;29;20479;-78
2021/05/14 08:50:42;;;;;;;10.40;7.70;;;13.00;99.90;;;;;;4942399;29;20483;-78
2021/05/14 08:53:30;;;;;;;8.77;7.97;;;13.10;99.90;;;;;;4943019;29;20798;-79
2021/05/14 08:55:58;;;;;;;8.73;7.83;;;13.10;99.90;;;;;;4936530;29;20432;-78
2021/05/14 08:58:25;;;;;;;9.43;8.47;;;13.10;99.90;;;;;;4934962;29;20472;-78
2021/05/14 09:00:54;;;;;;;11.10;8.10;;;13.10;99.90;;;;;;4936103;29;20522;-78
2021/05/14 09:03:26;;;;;;;9.80;8.93;;;13.20;99.90;;;;;;4937809;29;20410;-78
2021/05/14 09:05:55;;;;;;;8.67;7.87;;;13.20;99.90;;;;;;4942876;29;20423;-78
2021/05/14 09:08:28;;;;;;;9.13;8.20;;;13.30;99.90;;;;;;4942519;29;20479;-78
2021/05/14 09:10:56;;;;;;;10.17;8.53;;;13.30;99.90;;;;;;4942454;29;20467;-78
2021/05/14 09:13:35;;;;;;;13.47;8.90;;;13.40;99.90;;;;;;4942331;29;20475;-78
2021/05/14 09:16:03;;;;;;;9.53;8.33;;;13.40;99.90;;;;;;4943277;29;20511;-78
2021/05/14 09:18:32;;;;;;;9.60;8.60;;;13.50;99.90;;;;;;4940652;29;20460;-78
2021/05/14 09:21:01;;;;;;;12.68;9.15;;;13.60;99.90;;;;;;4940748;29;20508;-79
2021/05/14 09:23:35;;;;;;;10.93;9.47;;;13.60;99.90;;;;;;4941054;29;20243;-78
2021/05/14 09:26:04;;;;;;;10.23;8.53;;;13.70;99.90;;;;;;4941231;29;20426;-78
2021/05/14 09:28:35;;;;;;;10.97;9.27;;;13.90;99.90;;;;;;4940963;29;20505;-78
2021/05/14 09:31:08;;;;;;;9.40;8.57;;;14.00;99.90;;;;;;4942138;29;20452;-77
2021/05/14 09:33:39;;;;;;;10.30;9.20;;;14.10;99.90;;;;;;4940998;29;20436;-78
2021/05/14 09:36:09;;;;;;;10.33;9.03;;;14.10;99.90;;;;;;4940926;29;20881;-78
2021/05/14 09:38:50;;;;;;;10.20;9.20;;;14.30;99.90;;;;;;4938744;29;20484;-78
2021/05/14 09:41:32;;;;;;;12.90;10.17;;;14.40;99.90;;;;;;4941056;29;20457;-78
2021/05/14 09:44:03;;;;;;;12.20;8.27;;;14.40;99.90;;;;;;4941287;29;20440;-77
2021/05/14 09:46:39;;;;;;;11.77;7.80;;;14.50;99.90;;;;;;4921954;29;20511;-77
2021/05/14 09:49:10;;;;;;;8.50;7.60;;;14.60;99.90;;;;;;4923554;29;20883;-77
2021/05/14 09:51:49;;;;;;;7.73;7.00;;;14.70;99.90;;;;;;4922184;29;20553;-77
2021/05/14 09:54:35;;;;;;;9.47;7.67;;;14.70;99.90;;;;;;4921908;29;20929;-77
2021/05/14 09:57:17;;;;;;;10.20;8.07;;;14.90;99.90;;;;;;4921868;29;20459;-77
2021/05/14 09:59:47;;;;;;;8.57;6.70;;;15.00;99.90;;;;;;4927893;29;20481;-77
2021/05/14 10:02:22;;;;;;;8.47;7.67;;;15.10;99.90;;;;;;4940437;29;20462;-77
2021/05/14 10:04:51;;;;;;;8.47;7.77;;;15.30;99.90;;;;;;4942162;29;20425;-77
2021/05/14 10:07:19;;;;;;;7.67;6.83;;;15.40;99.90;;;;;;4941568;29;20534;-79
2021/05/14 10:09:51;;;;;;;9.40;6.83;;;15.40;99.90;;;;;;4940850;29;20475;-79
2021/05/14 10:12:19;;;;;;;7.57;6.83;;;15.50;99.90;;;;;;4942140;29;20449;-78
2021/05/14 10:14:47;;;;;;;8.40;7.03;;;15.50;99.90;;;;;;4941641;29;20848;-79
2021/05/14 10:17:15;;;;;;;8.97;7.20;;;15.50;99.90;;;;;;4937614;29;20546;-79
2021/05/14 10:19:45;;;;;;;8.83;7.50;;;15.60;99.90;;;;;;4938867;29;20965;-79
2021/05/14 10:22:14;;;;;;;11.37;7.37;;;15.60;99.90;;;;;;4936110;29;20851;-78
2021/05/14 10:24:43;;;;;;;27.90;17.33;;;15.60;99.90;;;;;;4938088;29;20442;-78
2021/05/14 10:27:16;;;;;;;10.30;8.03;;;15.70;99.90;;;;;;4936867;29;20432;-78
2021/05/14 10:29:45;;;;;;;8.17;7.03;;;15.80;99.90;;;;;;4935777;29;20449;-78
2021/05/14 10:32:13;;;;;;;9.77;7.17;;;15.80;99.90;;;;;;4937754;29;20476;-78
2021/05/14 10:34:41;;;;;;;11.03;7.50;;;15.90;99.90;;;;;;4937821;29;20448;-78
2021/05/14 10:37:09;;;;;;;8.47;6.63;;;15.90;99.90;;;;;;4938342;29;20916;-78
2021/05/14 10:39:40;;;;;;;10.82;7.80;;;16.00;99.90;;;;;;4937096;29;20896;-78
2021/05/14 10:42:09;;;;;;;8.43;7.23;;;16.20;99.90;;;;;;4940514;29;20612;-80
2021/05/14 10:44:52;;;;;;;9.60;7.30;;;16.20;99.90;;;;;;4945871;29;20514;-79
2021/05/14 10:47:45;;;;;;;10.13;6.90;;;16.30;99.90;;;;;;4944930;29;20875;-79
2021/05/14 10:50:38;;;;;;;7.10;6.33;;;16.30;99.90;;;;;;4944339;29;20454;-78
2021/05/14 10:53:27;;;;;;;7.50;5.87;;;16.20;99.90;;;;;;4944354;29;20438;-78
2021/05/14 10:56:02;;;;;;;13.47;7.00;;;16.20;99.90;;;;;;4944551;29;20885;-78
2021/05/14 10:58:46;;;;;;;9.80;6.53;;;16.20;99.90;;;;;;4947192;29;20838;-79
2021/05/14 11:01:33;;;;;;;7.43;6.43;;;16.20;99.90;;;;;;4946688;29;20480;-79
2021/05/14 11:04:03;;;;;;;9.20;6.50;;;16.20;99.90;;;;;;4944427;29;20456;-79
2021/05/14 11:06:41;;;;;;;7.97;6.90;;;16.20;99.90;;;;;;4944328;29;20460;-79
2021/05/14 11:09:10;;;;;;;8.50;6.70;;;16.20;99.90;;;;;;4945283;29;20482;-79
2021/05/14 11:11:57;;;;;;;11.03;6.50;;;16.30;99.90;;;;;;4944918;29;20423;-80
2021/05/14 11:14:27;;;;;;;9.03;6.27;;;16.30;99.90;;;;;;4944360;29;20447;-79
2021/05/14 11:16:57;;;;;;;6.70;6.03;;;16.30;99.80;;;;;;4943533;29;20464;-79
2021/05/14 11:19:28;;;;;;;7.20;6.00;;;16.30;99.80;;;;;;4945233;29;20526;-79
2021/05/14 11:22:18;;;;;;;10.27;6.07;;;16.30;99.80;;;;;;4943480;29;20508;-79
2021/05/14 11:24:51;;;;;;;10.50;6.53;;;16.40;99.80;;;;;;4933981;29;20480;-79
2021/05/14 11:27:22;;;;;;;8.03;6.60;;;16.50;99.70;;;;;;4945660;29;20933;-79
2021/05/14 11:29:53;;;;;;;9.57;6.83;;;16.60;99.50;;;;;;4945471;29;20472;-79
2021/05/14 11:32:29;;;;;;;8.10;6.93;;;16.60;99.30;;;;;;4944533;29;20490;-79
2021/05/14 11:34:59;;;;;;;8.40;6.10;;;16.60;99.20;;;;;;4945489;29;20436;-79
2021/05/14 11:37:29;;;;;;;9.20;6.80;;;16.60;99.30;;;;;;4946817;29;20424;-79
2021/05/14 11:39:57;;;;;;;9.93;6.53;;;16.60;99.20;;;;;;4945288;29;20453;-79
2021/05/14 11:42:26;;;;;;;10.90;7.80;;;16.60;99.10;;;;;;4946068;29;20630;-79
2021/05/14 11:44:59;;;;;;;8.83;6.97;;;16.70;99.10;;;;;;4945577;29;20456;-80
2021/05/14 11:47:28;;;;;;;10.73;7.10;;;16.70;99.10;;;;;;4926976;29;20529;-79
2021/05/14 11:49:57;;;;;;;7.63;5.80;;;16.80;98.90;;;;;;4927882;29;20531;-79
2021/05/14 11:52:35;;;;;;;7.95;7.00;;;16.80;98.90;;;;;;4927736;29;20452;-79
2021/05/14 11:55:10;;;;;;;9.07;7.20;;;17.00;98.00;;;;;;4944264;29;20188;-79
2021/05/14 11:57:41;;;;;;;8.27;6.30;;;17.00;98.20;;;;;;4943442;29;20424;-78
2021/05/14 12:00:10;;;;;;;9.23;6.80;;;17.10;98.20;;;;;;4943452;29;20484;-78
2021/05/14 12:02:43;;;;;;;8.97;8.03;;;17.00;98.20;;;;;;4943302;29;20528;-78
2021/05/14 12:05:13;;;;;;;9.40;7.73;;;17.00;98.10;;;;;;4943565;29;20428;-78
2021/05/14 12:07:42;;;;;;;10.67;7.70;;;17.00;98.20;;;;;;4942596;29;20962;-78
2021/05/14 12:10:13;;;;;;;9.03;8.13;;;17.10;98.30;;;;;;4942450;29;20507;-79
2021/05/14 12:12:42;;;;;;;9.63;7.63;;;17.10;98.20;;;;;;4944641;29;20543;-79
2021/05/14 12:15:22;;;;;;;8.60;6.80;;;17.10;98.00;;;;;;4943781;29;20771;-80
2021/05/14 12:17:57;;;;;;;9.57;7.90;;;17.20;98.10;;;;;;4940394;29;21027;-78
2021/05/14 12:20:34;;;;;;;8.70;7.80;;;17.20;98.00;;;;;;4941451;29;20510;-79
2021/05/14 12:23:04;;;;;;;8.70;7.30;;;17.30;98.00;;;;;;4936020;29;20506;-79
2021/05/14 12:25:43;;;;;;;8.57;7.77;;;17.40;98.00;;;;;;4938737;29;20519;-79
2021/05/14 12:28:37;;;;;;;10.43;9.50;;;17.50;98.00;;;;;;4939401;29;20463;-79
2021/05/14 12:31:07;;;;;;;10.07;9.03;;;17.60;97.80;;;;;;4939264;29;20848;-79
2021/05/14 12:33:47;;;;;;;8.77;7.87;;;17.60;97.80;;;;;;4941192;29;20432;-79
2021/05/14 12:36:15;;;;;;;9.83;8.83;;;17.60;97.80;;;;;;4939189;29;21024;-79
2021/05/14 12:38:45;;;;;;;10.43;9.43;;;17.70;97.90;;;;;;4939266;29;20825;-79
2021/05/14 12:41:29;;;;;;;10.23;9.33;;;17.70;97.70;;;;;;4940619;29;20464;-79
2021/05/14 12:44:18;;;;;;;10.63;9.33;;;17.80;97.40;;;;;;4939977;29;20458;-79
2021/05/14 12:47:04;;;;;;;10.90;9.80;;;17.70;96.80;;;;;;4941329;29;20439;-80
2021/05/14 12:49:35;;;;;;;10.10;9.00;;;17.60;97.10;;;;;;4939719;29;20535;-80
2021/05/14 12:52:06;;;;;;;11.20;8.63;;;17.60;97.20;;;;;;4939732;29;20517;-80
2021/05/14 12:54:34;;;;;;;12.23;10.73;;;17.50;97.00;;;;;;4941065;29;20491;-80